sensor_id;sensor_type;location;lat;lon;timestamp;temperature;humidity
21031;DHT22;61072;47.808;7.636;2023-05-07T00:02:20;15.50;99.90
21031;DHT22;61072;47.808;7.636;2023-05-07T00:04:47;15.50;99.90
21031;DHT22;61072;47.808;7.636;2023-05-07T00:07:14;15.50;99.90
21031;DHT22;61072;47.808;7.636;2023-05-07T00:09:41;15.50;99.90
21031;DHT22;61072;47.808;7.636;2023-05-07T00:12:08;15.50;99.90
21031;DHT22;61072;47.808;7.636;2023-05-07T00:14:35;15.40;99.90
21031;DHT22;61072;47.808;7.636;2023-05-07T00:17:02;15.50;99.90
21031;DHT22;61072;47.808;7.636;2023-05-07T00:19:29;15.40;99.90
21031;DHT22;61072;47.808;7.636;2023-05-07T00:21:56;15.40;99.90
21031;DHT22;61072;47.808;7.636;2023-05-07T00:24:23;15.40;99.90
21031;DHT22;61072;47.808;7.636;2023-05-07T00:26:50;15.30;99.90
21031;DHT22;61072;47.808;7.636;2023-05-07T00:29:17;15.30;99.90
21031;DHT22;61072;47.808;7.636;2023-05-07T00:31:44;15.30;99.90
21031;DHT22;61072;47.808;7.636;2023-05-07T00:34:11;15.30;99.90
21031;DHT22;61072;47.808;7.636;2023-05-07T00:36:38;15.30;99.90
21031;DHT22;61072;47.808;7.636;2023-05-07T00:39:04;15.30;99.90
21031;DHT22;61072;47.808;7.636;2023-05-07T00:41:31;15.30;99.90
21031;DHT22;61072;47.808;7.636;2023-05-07T00:43:58;15.30;99.90
21031;DHT22;61072;47.808;7.636;2023-05-07T00:46:25;15.30;99.90
21031;DHT22;61072;47.808;7.636;2023-05-07T00:48:53;15.20;99.90
21031;DHT22;61072;47.808;7.636;2023-05-07T00:51:20;15.20;99.90
21031;DHT22;61072;47.808;7.636;2023-05-07T00:53:47;15.20;99.90
21031;DHT22;61072;47.808;7.636;2023-05-07T00:56:14;15.10;99.90
21031;DHT22;61072;47.808;7.636;2023-05-07T00:58:41;15.10;99.90
21031;DHT22;61072;47.808;7.636;2023-05-07T01:01:08;15.10;99.90
21031;DHT22;61072;47.808;7.636;2023-05-07T01:03:35;15.10;99.90
21031;DHT22;61072;47.808;7.636;2023-05-07T01:06:03;15.10;99.90
21031;DHT22;61072;47.808;7.636;2023-05-07T01:08:32;15.00;99.90
21031;DHT22;61072;47.808;7.636;2023-05-07T01:11:01;15.00;99.90
21031;DHT22;61072;47.808;7.636;2023-05-07T01:13:28;15.00;99.90
21031;DHT22;61072;47.808;7.636;2023-05-07T01:15:55;15.00;99.90
21031;DHT22;61072;47.808;7.636;2023-05-07T01:18:22;15.00;99.90
21031;DHT22;61072;47.808;7.636;2023-05-07T01:20:49;14.90;99.90
21031;DHT22;61072;47.808;7.636;2023-05-07T01:23:17;14.90;99.90
21031;DHT22;61072;47.808;7.636;2023-05-07T01:25:51;14.90;99.90
21031;DHT22;61072;47.808;7.636;2023-05-07T01:28:18;14.80;99.90
21031;DHT22;61072;47.808;7.636;2023-05-07T01:30:49;14.80;99.90
21031;DHT22;61072;47.808;7.636;2023-05-07T01:33:20;14.80;99.90
21031;DHT22;61072;47.808;7.636;2023-05-07T01:35:53;14.80;99.90
21031;DHT22;61072;47.808;7.636;2023-05-07T01:38:21;14.80;99.90
21031;DHT22;61072;47.808;7.636;2023-05-07T01:40:49;14.70;99.90
21031;DHT22;61072;47.808;7.636;2023-05-07T01:43:16;14.70;99.90
21031;DHT22;61072;47.808;7.636;2023-05-07T01:45:43;14.70;99.90
21031;DHT22;61072;47.808;7.636;2023-05-07T01:48:11;14.60;99.90
21031;DHT22;61072;47.808;7.636;2023-05-07T01:50:39;14.60;99.90
21031;DHT22;61072;47.808;7.636;2023-05-07T01:53:06;14.60;99.90
21031;DHT22;61072;47.808;7.636;2023-05-07T01:55:33;14.50;99.90
21031;DHT22;61072;47.808;7.636;2023-05-07T01:58:00;14.50;99.90
21031;DHT22;61072;47.808;7.636;2023-05-07T02:00:27;14.50;99.90
21031;DHT22;61072;47.808;7.636;2023-05-07T02:02:53;14.50;99.90
21031;DHT22;61072;47.808;7.636;2023-05-07T02:05:20;14.40;99.90
21031;DHT22;61072;47.808;7.636;2023-05-07T02:07:47;14.40;99.90
21031;DHT22;61072;47.808;7.636;2023-05-07T02:10:14;14.40;99.90
21031;DHT22;61072;47.808;7.636;2023-05-07T02:12:41;14.40;99.90
21031;DHT22;61072;47.808;7.636;2023-05-07T02:15:09;14.40;99.90
21031;DHT22;61072;47.808;7.636;2023-05-07T02:17:39;14.40;99.90
21031;DHT22;61072;47.808;7.636;2023-05-07T02:20:23;14.30;99.90
21031;DHT22;61072;47.808;7.636;2023-05-07T02:22:50;14.30;99.90
21031;DHT22;61072;47.808;7.636;2023-05-07T02:25:17;14.30;99.90
21031;DHT22;61072;47.808;7.636;2023-05-07T02:27:44;14.20;99.90
21031;DHT22;61072;47.808;7.636;2023-05-07T02:30:11;14.20;99.90
21031;DHT22;61072;47.808;7.636;2023-05-07T02:32:38;14.10;99.90
21031;DHT22;61072;47.808;7.636;2023-05-07T02:35:05;14.10;99.90
21031;DHT22;61072;47.808;7.636;2023-05-07T02:37:32;14.10;99.90
21031;DHT22;61072;47.808;7.636;2023-05-07T02:39:58;14.10;99.90
21031;DHT22;61072;47.808;7.636;2023-05-07T02:42:25;14.10;99.90
21031;DHT22;61072;47.808;7.636;2023-05-07T02:44:52;14.10;99.90
21031;DHT22;61072;47.808;7.636;2023-05-07T02:47:18;14.10;99.90
21031;DHT22;61072;47.808;7.636;2023-05-07T02:49:45;14.10;99.90
21031;DHT22;61072;47.808;7.636;2023-05-07T02:52:12;14.10;99.90
21031;DHT22;61072;47.808;7.636;2023-05-07T02:54:39;14.10;99.90
21031;DHT22;61072;47.808;7.636;2023-05-07T02:57:05;14.00;99.90
21031;DHT22;61072;47.808;7.636;2023-05-07T02:59:32;14.00;99.90
21031;DHT22;61072;47.808;7.636;2023-05-07T03:01:59;14.00;99.90
21031;DHT22;61072;47.808;7.636;2023-05-07T03:04:26;14.00;99.90
21031;DHT22;61072;47.808;7.636;2023-05-07T03:06:52;14.00;99.90
21031;DHT22;61072;47.808;7.636;2023-05-07T03:09:19;13.90;99.90
21031;DHT22;61072;47.808;7.636;2023-05-07T03:11:46;13.90;99.90
21031;DHT22;61072;47.808;7.636;2023-05-07T03:14:13;14.00;99.90
21031;DHT22;61072;47.808;7.636;2023-05-07T03:16:40;13.90;99.90
21031;DHT22;61072;47.808;7.636;2023-05-07T03:19:06;13.90;99.90
21031;DHT22;61072;47.808;7.636;2023-05-07T03:21:33;13.90;99.90
21031;DHT22;61072;47.808;7.636;2023-05-07T03:24:01;13.90;99.90
21031;DHT22;61072;47.808;7.636;2023-05-07T03:26:27;13.90;99.90
21031;DHT22;61072;47.808;7.636;2023-05-07T03:28:54;13.80;99.90
21031;DHT22;61072;47.808;7.636;2023-05-07T03:31:22;13.80;99.90
21031;DHT22;61072;47.808;7.636;2023-05-07T03:33:55;13.80;99.90
21031;DHT22;61072;47.808;7.636;2023-05-07T03:36:23;13.80;99.90
21031;DHT22;61072;47.808;7.636;2023-05-07T03:38:50;13.80;99.90
21031;DHT22;61072;47.808;7.636;2023-05-07T03:41:17;13.80;99.90
21031;DHT22;61072;47.808;7.636;2023-05-07T03:43:44;13.80;99.90
21031;DHT22;61072;47.808;7.636;2023-05-07T03:46:10;13.70;99.90
21031;DHT22;61072;47.808;7.636;2023-05-07T03:48:37;13.70;99.90
21031;DHT22;61072;47.808;7.636;2023-05-07T03:51:04;13.70;99.90
21031;DHT22;61072;47.808;7.636;2023-05-07T03:53:31;13.70;99.90
21031;DHT22;61072;47.808;7.636;2023-05-07T03:55:58;13.70;99.90
21031;DHT22;61072;47.808;7.636;2023-05-07T03:58:24;13.70;99.90
21031;DHT22;61072;47.808;7.636;2023-05-07T04:00:51;13.70;99.90
21031;DHT22;61072;47.808;7.636;2023-05-07T04:03:18;13.70;99.90
21031;DHT22;61072;47.808;7.636;2023-05-07T04:05:45;13.70;99.90
21031;DHT22;61072;47.808;7.636;2023-05-07T04:08:12;13.70;99.90
21031;DHT22;61072;47.808;7.636;2023-05-07T04:10:38;13.70;99.90
21031;DHT22;61072;47.808;7.636;2023-05-07T04:13:05;13.70;99.90
21031;DHT22;61072;47.808;7.636;2023-05-07T04:15:32;13.70;99.90
21031;DHT22;61072;47.808;7.636;2023-05-07T04:17:58;13.70;99.90
21031;DHT22;61072;47.808;7.636;2023-05-07T04:20:25;13.70;99.90
21031;DHT22;61072;47.808;7.636;2023-05-07T04:22:52;13.70;99.90
21031;DHT22;61072;47.808;7.636;2023-05-07T04:25:19;13.70;99.90
21031;DHT22;61072;47.808;7.636;2023-05-07T04:27:46;13.70;99.90
21031;DHT22;61072;47.808;7.636;2023-05-07T04:30:13;13.70;99.90
21031;DHT22;61072;47.808;7.636;2023-05-07T04:32:40;13.70;99.90
21031;DHT22;61072;47.808;7.636;2023-05-07T04:35:07;13.70;99.90
21031;DHT22;61072;47.808;7.636;2023-05-07T04:37:34;13.70;99.90
21031;DHT22;61072;47.808;7.636;2023-05-07T04:40:01;13.80;99.90
21031;DHT22;61072;47.808;7.636;2023-05-07T04:42:28;13.80;99.90
21031;DHT22;61072;47.808;7.636;2023-05-07T04:44:54;13.90;99.90
21031;DHT22;61072;47.808;7.636;2023-05-07T04:47:21;13.90;99.90
21031;DHT22;61072;47.808;7.636;2023-05-07T04:49:48;14.00;99.90
21031;DHT22;61072;47.808;7.636;2023-05-07T04:52:15;14.00;99.90
21031;DHT22;61072;47.808;7.636;2023-05-07T04:54:42;14.10;99.90
21031;DHT22;61072;47.808;7.636;2023-05-07T04:57:08;14.20;99.90
21031;DHT22;61072;47.808;7.636;2023-05-07T04:59:35;14.40;99.90
21031;DHT22;61072;47.808;7.636;2023-05-07T05:02:02;14.50;99.90
21031;DHT22;61072;47.808;7.636;2023-05-07T05:04:30;14.60;99.90
21031;DHT22;61072;47.808;7.636;2023-05-07T05:06:57;14.70;99.90
21031;DHT22;61072;47.808;7.636;2023-05-07T05:09:24;14.80;99.90
21031;DHT22;61072;47.808;7.636;2023-05-07T05:11:51;14.90;99.90
21031;DHT22;61072;47.808;7.636;2023-05-07T05:14:18;15.00;99.90
21031;DHT22;61072;47.808;7.636;2023-05-07T05:16:44;15.10;99.90
21031;DHT22;61072;47.808;7.636;2023-05-07T05:19:11;15.10;99.90
21031;DHT22;61072;47.808;7.636;2023-05-07T05:21:38;15.20;99.90
21031;DHT22;61072;47.808;7.636;2023-05-07T05:24:05;15.20;99.90
21031;DHT22;61072;47.808;7.636;2023-05-07T05:26:31;15.20;99.90
21031;DHT22;61072;47.808;7.636;2023-05-07T05:28:58;15.30;99.90
21031;DHT22;61072;47.808;7.636;2023-05-07T05:31:25;15.30;99.90
21031;DHT22;61072;47.808;7.636;2023-05-07T05:33:52;15.40;99.90
21031;DHT22;61072;47.808;7.636;2023-05-07T05:36:19;15.40;99.90
21031;DHT22;61072;47.808;7.636;2023-05-07T05:38:46;15.50;99.90
21031;DHT22;61072;47.808;7.636;2023-05-07T05:41:12;15.50;99.90
21031;DHT22;61072;47.808;7.636;2023-05-07T05:43:39;15.60;99.90
21031;DHT22;61072;47.808;7.636;2023-05-07T05:46:06;15.60;99.90
21031;DHT22;61072;47.808;7.636;2023-05-07T05:48:33;15.70;99.90
21031;DHT22;61072;47.808;7.636;2023-05-07T05:51:00;15.80;99.90
21031;DHT22;61072;47.808;7.636;2023-05-07T05:53:26;15.90;99.90
21031;DHT22;61072;47.808;7.636;2023-05-07T05:55:53;15.90;99.90
21031;DHT22;61072;47.808;7.636;2023-05-07T05:58:20;16.00;99.90
21031;DHT22;61072;47.808;7.636;2023-05-07T06:00:47;16.10;99.90
21031;DHT22;61072;47.808;7.636;2023-05-07T06:03:14;16.20;99.90
21031;DHT22;61072;47.808;7.636;2023-05-07T06:05:41;16.30;99.90
21031;DHT22;61072;47.808;7.636;2023-05-07T06:08:08;16.40;99.90
21031;DHT22;61072;47.808;7.636;2023-05-07T06:10:36;16.40;99.90
21031;DHT22;61072;47.808;7.636;2023-05-07T06:13:03;16.60;99.90
21031;DHT22;61072;47.808;7.636;2023-05-07T06:15:30;16.60;99.90
21031;DHT22;61072;47.808;7.636;2023-05-07T06:17:57;16.70;99.90
21031;DHT22;61072;47.808;7.636;2023-05-07T06:20:24;16.70;99.90
21031;DHT22;61072;47.808;7.636;2023-05-07T06:22:50;16.80;99.90
21031;DHT22;61072;47.808;7.636;2023-05-07T06:25:17;16.80;99.90
21031;DHT22;61072;47.808;7.636;2023-05-07T06:27:44;16.90;99.90
21031;DHT22;61072;47.808;7.636;2023-05-07T06:30:11;16.90;99.90
21031;DHT22;61072;47.808;7.636;2023-05-07T06:32:40;16.90;99.90
21031;DHT22;61072;47.808;7.636;2023-05-07T06:35:08;16.80;99.90
21031;DHT22;61072;47.808;7.636;2023-05-07T06:37:34;16.80;99.90
21031;DHT22;61072;47.808;7.636;2023-05-07T06:40:01;16.70;99.90
21031;DHT22;61072;47.808;7.636;2023-05-07T06:42:28;16.70;99.90
21031;DHT22;61072;47.808;7.636;2023-05-07T06:44:55;16.60;99.90
21031;DHT22;61072;47.808;7.636;2023-05-07T06:47:21;16.50;99.90
21031;DHT22;61072;47.808;7.636;2023-05-07T06:49:48;16.50;99.90
21031;DHT22;61072;47.808;7.636;2023-05-07T06:52:15;16.50;99.90
21031;DHT22;61072;47.808;7.636;2023-05-07T06:54:41;16.50;99.90
21031;DHT22;61072;47.808;7.636;2023-05-07T06:57:08;16.50;99.90
21031;DHT22;61072;47.808;7.636;2023-05-07T06:59:35;16.50;99.90
21031;DHT22;61072;47.808;7.636;2023-05-07T07:02:02;16.50;99.90
21031;DHT22;61072;47.808;7.636;2023-05-07T07:04:29;16.60;99.90
21031;DHT22;61072;47.808;7.636;2023-05-07T07:06:56;16.60;99.90
21031;DHT22;61072;47.808;7.636;2023-05-07T07:09:23;16.60;99.90
21031;DHT22;61072;47.808;7.636;2023-05-07T07:11:50;16.60;99.90
21031;DHT22;61072;47.808;7.636;2023-05-07T07:14:16;16.70;99.90
21031;DHT22;61072;47.808;7.636;2023-05-07T07:16:43;16.80;99.90
21031;DHT22;61072;47.808;7.636;2023-05-07T07:19:10;16.80;99.90
21031;DHT22;61072;47.808;7.636;2023-05-07T07:21:36;16.90;99.90
21031;DHT22;61072;47.808;7.636;2023-05-07T07:24:03;17.00;99.90
21031;DHT22;61072;47.808;7.636;2023-05-07T07:26:30;17.00;99.90
21031;DHT22;61072;47.808;7.636;2023-05-07T07:28:57;17.10;99.90
21031;DHT22;61072;47.808;7.636;2023-05-07T07:31:24;17.20;99.90
21031;DHT22;61072;47.808;7.636;2023-05-07T07:33:51;17.20;99.90
21031;DHT22;61072;47.808;7.636;2023-05-07T07:36:18;17.30;99.90
21031;DHT22;61072;47.808;7.636;2023-05-07T07:38:45;17.40;99.90
21031;DHT22;61072;47.808;7.636;2023-05-07T07:41:12;17.50;99.90
21031;DHT22;61072;47.808;7.636;2023-05-07T07:43:38;17.50;99.90
21031;DHT22;61072;47.808;7.636;2023-05-07T07:46:05;17.60;99.90
21031;DHT22;61072;47.808;7.636;2023-05-07T07:48:32;17.70;99.90
21031;DHT22;61072;47.808;7.636;2023-05-07T07:50:59;17.80;99.90
21031;DHT22;61072;47.808;7.636;2023-05-07T07:53:26;17.80;99.90
21031;DHT22;61072;47.808;7.636;2023-05-07T07:55:52;17.90;99.90
21031;DHT22;61072;47.808;7.636;2023-05-07T07:58:24;17.90;99.90
21031;DHT22;61072;47.808;7.636;2023-05-07T08:00:51;18.00;99.90
21031;DHT22;61072;47.808;7.636;2023-05-07T08:03:18;18.10;99.90
21031;DHT22;61072;47.808;7.636;2023-05-07T08:05:46;18.10;99.90
21031;DHT22;61072;47.808;7.636;2023-05-07T08:08:12;18.10;99.90
21031;DHT22;61072;47.808;7.636;2023-05-07T08:10:39;18.10;99.90
21031;DHT22;61072;47.808;7.636;2023-05-07T08:13:06;18.20;99.90
21031;DHT22;61072;47.808;7.636;2023-05-07T08:15:33;18.30;99.90
21031;DHT22;61072;47.808;7.636;2023-05-07T08:18:01;18.30;99.90
21031;DHT22;61072;47.808;7.636;2023-05-07T08:20:28;18.40;99.90
21031;DHT22;61072;47.808;7.636;2023-05-07T08:22:55;18.50;99.90
21031;DHT22;61072;47.808;7.636;2023-05-07T08:25:22;18.60;99.90
21031;DHT22;61072;47.808;7.636;2023-05-07T08:27:48;18.60;99.90
21031;DHT22;61072;47.808;7.636;2023-05-07T08:30:15;18.70;99.90
21031;DHT22;61072;47.808;7.636;2023-05-07T08:32:42;18.80;99.90
21031;DHT22;61072;47.808;7.636;2023-05-07T08:35:09;18.90;99.90
21031;DHT22;61072;47.808;7.636;2023-05-07T08:37:36;19.00;99.90
21031;DHT22;61072;47.808;7.636;2023-05-07T08:40:03;19.00;99.90
21031;DHT22;61072;47.808;7.636;2023-05-07T08:42:35;19.20;99.90
21031;DHT22;61072;47.808;7.636;2023-05-07T08:45:04;19.30;99.90
21031;DHT22;61072;47.808;7.636;2023-05-07T08:47:41;19.40;99.90
21031;DHT22;61072;47.808;7.636;2023-05-07T08:50:09;19.50;99.90
21031;DHT22;61072;47.808;7.636;2023-05-07T08:52:36;19.60;99.90
21031;DHT22;61072;47.808;7.636;2023-05-07T08:55:03;19.70;99.90
21031;DHT22;61072;47.808;7.636;2023-05-07T08:57:30;19.70;99.90
21031;DHT22;61072;47.808;7.636;2023-05-07T08:59:57;19.80;99.90
21031;DHT22;61072;47.808;7.636;2023-05-07T09:02:24;19.80;99.90
21031;DHT22;61072;47.808;7.636;2023-05-07T09:04:51;19.80;99.90
21031;DHT22;61072;47.808;7.636;2023-05-07T09:07:20;19.80;99.90
21031;DHT22;61072;47.808;7.636;2023-05-07T09:09:46;19.80;99.90
21031;DHT22;61072;47.808;7.636;2023-05-07T09:12:13;19.80;99.90
21031;DHT22;61072;47.808;7.636;2023-05-07T09:14:40;19.70;99.90
21031;DHT22;61072;47.808;7.636;2023-05-07T09:17:06;19.70;99.90
21031;DHT22;61072;47.808;7.636;2023-05-07T09:19:33;19.50;99.90
21031;DHT22;61072;47.808;7.636;2023-05-07T09:22:02;19.50;99.90
21031;DHT22;61072;47.808;7.636;2023-05-07T09:24:29;19.30;99.90
21031;DHT22;61072;47.808;7.636;2023-05-07T09:27:01;19.20;99.90
21031;DHT22;61072;47.808;7.636;2023-05-07T09:29:28;19.10;99.90
21031;DHT22;61072;47.808;7.636;2023-05-07T09:31:56;19.10;99.90
21031;DHT22;61072;47.808;7.636;2023-05-07T09:34:23;19.00;99.90
21031;DHT22;61072;47.808;7.636;2023-05-07T09:36:50;18.90;99.90
21031;DHT22;61072;47.808;7.636;2023-05-07T09:39:17;18.80;99.90
21031;DHT22;61072;47.808;7.636;2023-05-07T09:41:45;18.70;99.90
21031;DHT22;61072;47.808;7.636;2023-05-07T09:44:13;18.60;99.90
21031;DHT22;61072;47.808;7.636;2023-05-07T09:46:42;18.50;99.90
21031;DHT22;61072;47.808;7.636;2023-05-07T09:49:16;18.50;99.90
21031;DHT22;61072;47.808;7.636;2023-05-07T09:51:49;18.50;99.90
21031;DHT22;61072;47.808;7.636;2023-05-07T09:54:17;18.40;99.90
21031;DHT22;61072;47.808;7.636;2023-05-07T09:56:52;18.40;99.90
21031;DHT22;61072;47.808;7.636;2023-05-07T09:59:20;18.40;99.90
21031;DHT22;61072;47.808;7.636;2023-05-07T10:01:49;18.40;99.90
21031;DHT22;61072;47.808;7.636;2023-05-07T10:04:17;18.40;99.90
21031;DHT22;61072;47.808;7.636;2023-05-07T10:06:44;18.40;99.90
21031;DHT22;61072;47.808;7.636;2023-05-07T10:09:12;18.40;99.90
21031;DHT22;61072;47.808;7.636;2023-05-07T10:11:40;18.50;99.90
21031;DHT22;61072;47.808;7.636;2023-05-07T10:14:07;18.50;99.90
21031;DHT22;61072;47.808;7.636;2023-05-07T10:16:35;18.60;99.90
21031;DHT22;61072;47.808;7.636;2023-05-07T10:19:04;18.60;99.90
21031;DHT22;61072;47.808;7.636;2023-05-07T10:21:36;18.70;99.90
21031;DHT22;61072;47.808;7.636;2023-05-07T10:24:10;18.70;99.90
21031;DHT22;61072;47.808;7.636;2023-05-07T10:26:43;18.80;99.90
21031;DHT22;61072;47.808;7.636;2023-05-07T10:29:15;18.90;99.90
21031;DHT22;61072;47.808;7.636;2023-05-07T10:32:05;19.00;99.90
21031;DHT22;61072;47.808;7.636;2023-05-07T10:34:42;19.20;99.90
21031;DHT22;61072;47.808;7.636;2023-05-07T10:37:10;19.50;99.90
21031;DHT22;61072;47.808;7.636;2023-05-07T10:39:38;19.70;99.90
21031;DHT22;61072;47.808;7.636;2023-05-07T10:42:12;19.90;99.90
21031;DHT22;61072;47.808;7.636;2023-05-07T10:44:40;20.10;99.90
21031;DHT22;61072;47.808;7.636;2023-05-07T10:47:14;20.40;99.90
21031;DHT22;61072;47.808;7.636;2023-05-07T10:52:19;20.80;99.90
21031;DHT22;61072;47.808;7.636;2023-05-07T10:54:46;21.00;99.90
21031;DHT22;61072;47.808;7.636;2023-05-07T10:59:58;21.30;99.90
21031;DHT22;61072;47.808;7.636;2023-05-07T11:05:31;21.50;99.90
21031;DHT22;61072;47.808;7.636;2023-05-07T11:08:03;21.60;99.90
21031;DHT22;61072;47.808;7.636;2023-05-07T11:13:55;21.80;99.90
21031;DHT22;61072;47.808;7.636;2023-05-07T11:16:23;21.90;99.90
21031;DHT22;61072;47.808;7.636;2023-05-07T11:18:52;21.90;99.90
21031;DHT22;61072;47.808;7.636;2023-05-07T11:21:40;22.00;99.90
21031;DHT22;61072;47.808;7.636;2023-05-07T11:24:08;22.10;99.90
21031;DHT22;61072;47.808;7.636;2023-05-07T11:26:47;22.10;99.90
21031;DHT22;61072;47.808;7.636;2023-05-07T11:29:16;22.20;99.90
21031;DHT22;61072;47.808;7.636;2023-05-07T11:31:54;22.30;99.90
21031;DHT22;61072;47.808;7.636;2023-05-07T11:34:22;22.30;99.90
21031;DHT22;61072;47.808;7.636;2023-05-07T11:36:50;22.40;99.90
21031;DHT22;61072;47.808;7.636;2023-05-07T11:39:30;22.50;99.90
21031;DHT22;61072;47.808;7.636;2023-05-07T11:42:00;22.50;99.90
21031;DHT22;61072;47.808;7.636;2023-05-07T11:44:43;22.50;99.90
21031;DHT22;61072;47.808;7.636;2023-05-07T11:47:11;22.50;99.90
21031;DHT22;61072;47.808;7.636;2023-05-07T11:49:38;22.50;99.90
21031;DHT22;61072;47.808;7.636;2023-05-07T11:52:04;22.40;99.90
21031;DHT22;61072;47.808;7.636;2023-05-07T11:54:36;22.30;99.90
21031;DHT22;61072;47.808;7.636;2023-05-07T11:57:03;22.20;99.90
21031;DHT22;61072;47.808;7.636;2023-05-07T11:59:30;22.10;99.90
21031;DHT22;61072;47.808;7.636;2023-05-07T12:01:57;22.00;99.90
21031;DHT22;61072;47.808;7.636;2023-05-07T12:04:25;21.80;99.90
21031;DHT22;61072;47.808;7.636;2023-05-07T12:06:55;21.70;99.90
21031;DHT22;61072;47.808;7.636;2023-05-07T12:09:22;21.60;99.90
21031;DHT22;61072;47.808;7.636;2023-05-07T12:11:49;21.50;99.90
21031;DHT22;61072;47.808;7.636;2023-05-07T12:14:17;21.60;99.90
21031;DHT22;61072;47.808;7.636;2023-05-07T12:16:44;21.50;99.90
21031;DHT22;61072;47.808;7.636;2023-05-07T12:19:11;21.60;99.90
21031;DHT22;61072;47.808;7.636;2023-05-07T12:21:41;21.60;99.90
21031;DHT22;61072;47.808;7.636;2023-05-07T12:24:08;21.60;99.90
21031;DHT22;61072;47.808;7.636;2023-05-07T12:26:38;21.60;99.90
21031;DHT22;61072;47.808;7.636;2023-05-07T12:29:07;21.50;99.90
21031;DHT22;61072;47.808;7.636;2023-05-07T12:31:34;21.50;99.90
21031;DHT22;61072;47.808;7.636;2023-05-07T12:34:01;21.50;99.90
21031;DHT22;61072;47.808;7.636;2023-05-07T12:36:39;21.50;99.90
21031;DHT22;61072;47.808;7.636;2023-05-07T12:39:07;21.40;99.90
21031;DHT22;61072;47.808;7.636;2023-05-07T12:41:54;21.40;99.90
21031;DHT22;61072;47.808;7.636;2023-05-07T12:44:26;21.40;99.90
21031;DHT22;61072;47.808;7.636;2023-05-07T12:46:55;21.40;99.90
21031;DHT22;61072;47.808;7.636;2023-05-07T12:49:23;21.30;99.90
21031;DHT22;61072;47.808;7.636;2023-05-07T12:51:51;21.30;99.90
21031;DHT22;61072;47.808;7.636;2023-05-07T12:57:05;21.30;99.90
21031;DHT22;61072;47.808;7.636;2023-05-07T12:59:37;21.30;99.90
21031;DHT22;61072;47.808;7.636;2023-05-07T13:02:05;21.40;99.90
21031;DHT22;61072;47.808;7.636;2023-05-07T13:04:32;21.50;99.90
21031;DHT22;61072;47.808;7.636;2023-05-07T13:06:59;21.60;99.90
21031;DHT22;61072;47.808;7.636;2023-05-07T13:09:26;21.70;99.90
21031;DHT22;61072;47.808;7.636;2023-05-07T13:11:55;21.80;99.90
21031;DHT22;61072;47.808;7.636;2023-05-07T13:14:22;21.90;99.90
21031;DHT22;61072;47.808;7.636;2023-05-07T13:16:48;21.90;99.90
21031;DHT22;61072;47.808;7.636;2023-05-07T13:19:16;22.00;99.90
21031;DHT22;61072;47.808;7.636;2023-05-07T13:21:42;22.10;99.90
21031;DHT22;61072;47.808;7.636;2023-05-07T13:24:09;22.10;99.90
21031;DHT22;61072;47.808;7.636;2023-05-07T13:26:36;22.20;99.90
21031;DHT22;61072;47.808;7.636;2023-05-07T13:29:03;22.20;99.90
21031;DHT22;61072;47.808;7.636;2023-05-07T13:31:29;22.20;99.90
21031;DHT22;61072;47.808;7.636;2023-05-07T13:33:56;22.30;99.90
21031;DHT22;61072;47.808;7.636;2023-05-07T13:36:23;22.30;99.90
21031;DHT22;61072;47.808;7.636;2023-05-07T13:38:50;22.40;99.90
21031;DHT22;61072;47.808;7.636;2023-05-07T13:41:18;22.50;99.90
21031;DHT22;61072;47.808;7.636;2023-05-07T13:43:45;22.50;99.90
21031;DHT22;61072;47.808;7.636;2023-05-07T13:46:11;22.60;99.90
21031;DHT22;61072;47.808;7.636;2023-05-07T13:48:38;22.60;99.90
21031;DHT22;61072;47.808;7.636;2023-05-07T13:51:05;22.60;99.90
21031;DHT22;61072;47.808;7.636;2023-05-07T13:53:32;22.60;99.90
21031;DHT22;61072;47.808;7.636;2023-05-07T13:55:58;22.60;99.90
21031;DHT22;61072;47.808;7.636;2023-05-07T13:58:25;22.60;99.90
21031;DHT22;61072;47.808;7.636;2023-05-07T14:00:52;22.60;99.90
21031;DHT22;61072;47.808;7.636;2023-05-07T14:03:19;22.60;99.90
21031;DHT22;61072;47.808;7.636;2023-05-07T14:05:46;22.70;99.90
21031;DHT22;61072;47.808;7.636;2023-05-07T14:08:15;22.70;99.90
21031;DHT22;61072;47.808;7.636;2023-05-07T14:10:45;22.70;99.90
21031;DHT22;61072;47.808;7.636;2023-05-07T14:13:12;22.70;99.90
21031;DHT22;61072;47.808;7.636;2023-05-07T14:15:39;22.60;99.90
21031;DHT22;61072;47.808;7.636;2023-05-07T14:18:06;22.60;99.90
21031;DHT22;61072;47.808;7.636;2023-05-07T14:20:33;22.50;99.90
21031;DHT22;61072;47.808;7.636;2023-05-07T14:23:03;22.30;99.90
21031;DHT22;61072;47.808;7.636;2023-05-07T14:25:30;22.10;99.90
21031;DHT22;61072;47.808;7.636;2023-05-07T14:27:57;22.00;99.90
21031;DHT22;61072;47.808;7.636;2023-05-07T14:30:23;22.00;99.90
21031;DHT22;61072;47.808;7.636;2023-05-07T14:32:51;22.10;99.90
21031;DHT22;61072;47.808;7.636;2023-05-07T14:35:18;22.00;99.90
21031;DHT22;61072;47.808;7.636;2023-05-07T14:37:44;22.00;99.90
21031;DHT22;61072;47.808;7.636;2023-05-07T14:40:11;22.00;99.90
21031;DHT22;61072;47.808;7.636;2023-05-07T14:42:38;22.00;99.90
21031;DHT22;61072;47.808;7.636;2023-05-07T14:45:06;21.90;99.90
21031;DHT22;61072;47.808;7.636;2023-05-07T14:47:33;21.80;99.90
21031;DHT22;61072;47.808;7.636;2023-05-07T14:49:59;21.60;99.90
21031;DHT22;61072;47.808;7.636;2023-05-07T14:52:27;21.50;99.90
21031;DHT22;61072;47.808;7.636;2023-05-07T14:54:54;21.40;99.90
21031;DHT22;61072;47.808;7.636;2023-05-07T14:57:21;21.40;99.90
21031;DHT22;61072;47.808;7.636;2023-05-07T14:59:48;21.30;99.90
21031;DHT22;61072;47.808;7.636;2023-05-07T15:02:14;21.30;99.90
21031;DHT22;61072;47.808;7.636;2023-05-07T15:04:42;21.30;99.90
21031;DHT22;61072;47.808;7.636;2023-05-07T15:07:13;21.30;99.90
21031;DHT22;61072;47.808;7.636;2023-05-07T15:09:43;21.40;99.90
21031;DHT22;61072;47.808;7.636;2023-05-07T15:12:11;21.40;99.90
21031;DHT22;61072;47.808;7.636;2023-05-07T15:14:38;21.50;99.90
21031;DHT22;61072;47.808;7.636;2023-05-07T15:17:05;21.50;99.90
21031;DHT22;61072;47.808;7.636;2023-05-07T15:19:32;21.50;99.90
21031;DHT22;61072;47.808;7.636;2023-05-07T15:22:00;21.50;99.90
21031;DHT22;61072;47.808;7.636;2023-05-07T15:24:30;21.50;99.90
21031;DHT22;61072;47.808;7.636;2023-05-07T15:26:57;21.50;99.90
21031;DHT22;61072;47.808;7.636;2023-05-07T15:29:24;21.40;99.90
21031;DHT22;61072;47.808;7.636;2023-05-07T15:31:51;21.40;99.90
21031;DHT22;61072;47.808;7.636;2023-05-07T15:34:18;21.40;99.90
21031;DHT22;61072;47.808;7.636;2023-05-07T15:36:45;21.40;99.90
21031;DHT22;61072;47.808;7.636;2023-05-07T15:39:12;21.50;99.90
21031;DHT22;61072;47.808;7.636;2023-05-07T15:41:39;21.50;99.90
21031;DHT22;61072;47.808;7.636;2023-05-07T15:44:05;21.50;99.90
21031;DHT22;61072;47.808;7.636;2023-05-07T15:46:32;21.40;99.90
21031;DHT22;61072;47.808;7.636;2023-05-07T15:49:01;21.30;99.90